Boncarbo, Colorado
Current Conditions -  °F | °C
As of 11:54 PM on Saturday 22 Nov 2014 (Local Time) from KTAD Reporting Station
Clear Clear  
Wind Chill:   Ceiling: Unl
Heat Index:   Visibility: 10mi
Dew Point: -7°   Wind: 14mph
Humidity: 34%   Direction: 300°WNW
Pressure: 29.6"   Gusts: 29mph
Location:  37.22°N, 104.7°W
Report Text: KTAD 230654Z AUTO 30012G25KT 10SM CLR 08/M07 A2960 RMK AO2 SLP977 T00831067 401611028
Loading
Personal Weather Stations






























Interactive Weather Map New forecast layout! Learn more

10-Day Weather Forecast

Advertisements
Track Severe Weather on mobile